George Town, Malaysia
Current Conditions -  °F | °C
As of 5:00 PM on Saturday 20 Dec 2014 (Local Time) from WMKB Reporting Station
Light Rain Light Rain  
Wind Chill: 79°   Ceiling: 26000
Heat Index: 83°   Visibility: 5mi
Dew Point: 77°   Wind: 8mph
Humidity: 94%   Direction: 40°NE
Pressure: 29.71"   Gusts: NA
Location:  5.42°N, 100.33°E
Report Text: WMKB 200900Z 04007KT 8000 -RA FEW010 SCT140 BKN260 26/25 Q1006 NOSIG
Loading
Personal Weather Stations






























Interactive Weather Map New forecast layout! Learn more

10-Day Weather Forecast

Advertisements
Track Severe Weather on mobile